sensor_id;sensor_type;location;lat;lon;timestamp;temperature;humidity
29713;DHT22;16623;53.632;10.016;2024-01-27T00:02:18;6.50;99.90
29713;DHT22;16623;53.632;10.016;2024-01-27T00:04:44;6.50;99.90
29713;DHT22;16623;53.632;10.016;2024-01-27T00:07:10;6.50;99.90
29713;DHT22;16623;53.632;10.016;2024-01-27T00:09:35;6.50;99.90
29713;DHT22;16623;53.632;10.016;2024-01-27T00:12:01;6.50;99.90
29713;DHT22;16623;53.632;10.016;2024-01-27T00:14:27;6.50;99.90
29713;DHT22;16623;53.632;10.016;2024-01-27T00:16:53;6.50;99.90
29713;DHT22;16623;53.632;10.016;2024-01-27T00:19:18;6.60;99.90
29713;DHT22;16623;53.632;10.016;2024-01-27T00:21:44;6.50;99.90
29713;DHT22;16623;53.632;10.016;2024-01-27T00:24:09;6.50;99.90
29713;DHT22;16623;53.632;10.016;2024-01-27T00:26:35;6.50;99.90
29713;DHT22;16623;53.632;10.016;2024-01-27T00:29:00;6.60;99.90
29713;DHT22;16623;53.632;10.016;2024-01-27T00:31:25;6.60;99.90
29713;DHT22;16623;53.632;10.016;2024-01-27T00:33:51;6.60;99.90
29713;DHT22;16623;53.632;10.016;2024-01-27T00:36:16;6.60;99.90
29713;DHT22;16623;53.632;10.016;2024-01-27T00:38:43;6.60;99.90
29713;DHT22;16623;53.632;10.016;2024-01-27T00:41:08;6.60;99.90
29713;DHT22;16623;53.632;10.016;2024-01-27T00:43:38;6.60;99.90
29713;DHT22;16623;53.632;10.016;2024-01-27T00:46:03;6.60;99.90
29713;DHT22;16623;53.632;10.016;2024-01-27T00:48:29;6.60;99.90
29713;DHT22;16623;53.632;10.016;2024-01-27T00:50:54;6.60;99.90
29713;DHT22;16623;53.632;10.016;2024-01-27T00:53:20;6.60;99.90
29713;DHT22;16623;53.632;10.016;2024-01-27T00:55:45;6.60;99.90
29713;DHT22;16623;53.632;10.016;2024-01-27T00:58:11;6.70;99.90
29713;DHT22;16623;53.632;10.016;2024-01-27T01:00:36;6.70;99.90
29713;DHT22;16623;53.632;10.016;2024-01-27T01:03:02;6.70;99.90
29713;DHT22;16623;53.632;10.016;2024-01-27T01:05:27;6.60;99.90
29713;DHT22;16623;53.632;10.016;2024-01-27T01:07:53;6.60;99.90
29713;DHT22;16623;53.632;10.016;2024-01-27T01:10:19;6.60;99.90
29713;DHT22;16623;53.632;10.016;2024-01-27T01:12:44;6.70;99.90
29713;DHT22;16623;53.632;10.016;2024-01-27T01:15:10;6.70;99.90
29713;DHT22;16623;53.632;10.016;2024-01-27T01:17:35;6.60;99.90
29713;DHT22;16623;53.632;10.016;2024-01-27T01:20:01;6.60;99.90
29713;DHT22;16623;53.632;10.016;2024-01-27T01:22:27;6.60;99.90
29713;DHT22;16623;53.632;10.016;2024-01-27T01:24:53;6.60;99.90
29713;DHT22;16623;53.632;10.016;2024-01-27T01:27:18;6.70;99.90
29713;DHT22;16623;53.632;10.016;2024-01-27T01:29:46;6.70;99.90
29713;DHT22;16623;53.632;10.016;2024-01-27T01:32:12;6.70;99.90
29713;DHT22;16623;53.632;10.016;2024-01-27T01:34:37;6.70;99.90
29713;DHT22;16623;53.632;10.016;2024-01-27T01:37:03;6.70;99.90
29713;DHT22;16623;53.632;10.016;2024-01-27T01:39:28;6.70;99.90
29713;DHT22;16623;53.632;10.016;2024-01-27T01:41:54;6.70;99.90
29713;DHT22;16623;53.632;10.016;2024-01-27T01:44:20;6.70;99.90
29713;DHT22;16623;53.632;10.016;2024-01-27T01:46:45;6.70;99.90
29713;DHT22;16623;53.632;10.016;2024-01-27T01:49:11;6.70;99.90
29713;DHT22;16623;53.632;10.016;2024-01-27T01:51:37;6.70;99.90
29713;DHT22;16623;53.632;10.016;2024-01-27T01:54:02;6.60;99.90
29713;DHT22;16623;53.632;10.016;2024-01-27T01:56:29;6.80;99.90
29713;DHT22;16623;53.632;10.016;2024-01-27T01:58:54;6.80;99.90
29713;DHT22;16623;53.632;10.016;2024-01-27T02:01:20;6.80;99.90
29713;DHT22;16623;53.632;10.016;2024-01-27T02:03:53;6.80;99.90
29713;DHT22;16623;53.632;10.016;2024-01-27T02:06:19;6.80;99.90
29713;DHT22;16623;53.632;10.016;2024-01-27T02:08:44;6.80;99.90
29713;DHT22;16623;53.632;10.016;2024-01-27T02:11:10;6.80;99.90
29713;DHT22;16623;53.632;10.016;2024-01-27T02:13:35;6.80;99.90
29713;DHT22;16623;53.632;10.016;2024-01-27T02:16:01;6.80;99.90
29713;DHT22;16623;53.632;10.016;2024-01-27T02:20:53;6.80;99.90
29713;DHT22;16623;53.632;10.016;2024-01-27T02:23:18;6.80;99.90
29713;DHT22;16623;53.632;10.016;2024-01-27T02:25:44;6.80;99.90
29713;DHT22;16623;53.632;10.016;2024-01-27T02:28:09;6.80;99.90
29713;DHT22;16623;53.632;10.016;2024-01-27T02:30:35;6.80;99.90
29713;DHT22;16623;53.632;10.016;2024-01-27T02:33:01;6.80;99.90
29713;DHT22;16623;53.632;10.016;2024-01-27T02:35:26;6.80;99.90
29713;DHT22;16623;53.632;10.016;2024-01-27T02:37:52;6.80;99.90
29713;DHT22;16623;53.632;10.016;2024-01-27T02:40:17;6.80;99.90
29713;DHT22;16623;53.632;10.016;2024-01-27T02:42:43;6.80;99.90
29713;DHT22;16623;53.632;10.016;2024-01-27T02:45:10;6.80;99.90
29713;DHT22;16623;53.632;10.016;2024-01-27T02:47:36;6.80;99.90
29713;DHT22;16623;53.632;10.016;2024-01-27T02:50:02;6.80;99.90
29713;DHT22;16623;53.632;10.016;2024-01-27T02:52:27;6.70;99.90
29713;DHT22;16623;53.632;10.016;2024-01-27T02:54:53;6.80;99.90
29713;DHT22;16623;53.632;10.016;2024-01-27T02:57:19;6.80;99.90
29713;DHT22;16623;53.632;10.016;2024-01-27T02:59:48;6.70;99.90
29713;DHT22;16623;53.632;10.016;2024-01-27T03:02:15;6.70;99.90
29713;DHT22;16623;53.632;10.016;2024-01-27T03:04:40;6.70;99.90
29713;DHT22;16623;53.632;10.016;2024-01-27T03:07:06;6.60;99.90
29713;DHT22;16623;53.632;10.016;2024-01-27T03:09:32;6.70;99.90
29713;DHT22;16623;53.632;10.016;2024-01-27T03:11:58;6.60;99.90
29713;DHT22;16623;53.632;10.016;2024-01-27T03:14:24;6.60;99.90
29713;DHT22;16623;53.632;10.016;2024-01-27T03:16:49;6.60;99.90
29713;DHT22;16623;53.632;10.016;2024-01-27T03:19:15;6.50;99.90
29713;DHT22;16623;53.632;10.016;2024-01-27T03:21:40;6.60;99.90
29713;DHT22;16623;53.632;10.016;2024-01-27T03:24:06;6.60;99.90
29713;DHT22;16623;53.632;10.016;2024-01-27T03:26:32;7.50;99.90
29713;DHT22;16623;53.632;10.016;2024-01-27T03:28:57;6.50;99.90
29713;DHT22;16623;53.632;10.016;2024-01-27T03:31:23;6.50;99.90
29713;DHT22;16623;53.632;10.016;2024-01-27T03:33:48;6.50;99.90
29713;DHT22;16623;53.632;10.016;2024-01-27T03:36:15;6.50;99.90
29713;DHT22;16623;53.632;10.016;2024-01-27T03:38:41;6.60;99.90
29713;DHT22;16623;53.632;10.016;2024-01-27T03:41:07;6.60;99.90
29713;DHT22;16623;53.632;10.016;2024-01-27T03:43:36;6.50;99.90
29713;DHT22;16623;53.632;10.016;2024-01-27T03:46:01;6.50;99.90
29713;DHT22;16623;53.632;10.016;2024-01-27T03:48:28;6.50;99.90
29713;DHT22;16623;53.632;10.016;2024-01-27T03:50:53;6.40;99.90
29713;DHT22;16623;53.632;10.016;2024-01-27T03:53:19;6.40;99.90
29713;DHT22;16623;53.632;10.016;2024-01-27T03:55:44;6.40;99.90
29713;DHT22;16623;53.632;10.016;2024-01-27T03:58:10;6.50;99.90
29713;DHT22;16623;53.632;10.016;2024-01-27T04:00:35;6.40;99.90
29713;DHT22;16623;53.632;10.016;2024-01-27T04:03:01;6.40;99.90
29713;DHT22;16623;53.632;10.016;2024-01-27T04:05:28;6.40;99.90
29713;DHT22;16623;53.632;10.016;2024-01-27T04:07:54;6.30;99.90
29713;DHT22;16623;53.632;10.016;2024-01-27T04:10:21;6.40;99.90
29713;DHT22;16623;53.632;10.016;2024-01-27T04:12:46;6.40;99.90
29713;DHT22;16623;53.632;10.016;2024-01-27T04:15:12;6.40;99.90
29713;DHT22;16623;53.632;10.016;2024-01-27T04:17:38;6.30;99.90
29713;DHT22;16623;53.632;10.016;2024-01-27T04:20:04;6.30;99.90
29713;DHT22;16623;53.632;10.016;2024-01-27T04:22:30;6.30;99.90
29713;DHT22;16623;53.632;10.016;2024-01-27T04:24:55;6.30;99.90
29713;DHT22;16623;53.632;10.016;2024-01-27T04:27:21;6.20;99.90
29713;DHT22;16623;53.632;10.016;2024-01-27T04:29:47;6.40;99.90
29713;DHT22;16623;53.632;10.016;2024-01-27T04:32:13;6.30;99.90
29713;DHT22;16623;53.632;10.016;2024-01-27T04:34:38;6.30;99.90
29713;DHT22;16623;53.632;10.016;2024-01-27T04:37:05;6.30;99.90
29713;DHT22;16623;53.632;10.016;2024-01-27T04:39:30;6.30;99.90
29713;DHT22;16623;53.632;10.016;2024-01-27T04:41:56;6.20;99.90
29713;DHT22;16623;53.632;10.016;2024-01-27T04:44:21;6.20;99.90
29713;DHT22;16623;53.632;10.016;2024-01-27T04:46:47;7.00;99.90
29713;DHT22;16623;53.632;10.016;2024-01-27T04:49:14;6.30;99.90
29713;DHT22;16623;53.632;10.016;2024-01-27T04:51:40;6.20;99.90
29713;DHT22;16623;53.632;10.016;2024-01-27T04:54:07;6.20;99.90
29713;DHT22;16623;53.632;10.016;2024-01-27T04:56:33;6.20;99.90
29713;DHT22;16623;53.632;10.016;2024-01-27T04:58:58;6.10;99.90
29713;DHT22;16623;53.632;10.016;2024-01-27T05:03:50;6.10;99.90
29713;DHT22;16623;53.632;10.016;2024-01-27T05:06:15;5.90;99.90
29713;DHT22;16623;53.632;10.016;2024-01-27T05:08:41;5.90;99.90
29713;DHT22;16623;53.632;10.016;2024-01-27T05:11:07;6.00;99.90
29713;DHT22;16623;53.632;10.016;2024-01-27T05:13:33;6.00;99.90
29713;DHT22;16623;53.632;10.016;2024-01-27T05:15:58;6.00;99.90
29713;DHT22;16623;53.632;10.016;2024-01-27T05:18:24;6.00;99.90
29713;DHT22;16623;53.632;10.016;2024-01-27T05:20:49;6.00;99.90
29713;DHT22;16623;53.632;10.016;2024-01-27T05:23:15;6.00;99.90
29713;DHT22;16623;53.632;10.016;2024-01-27T05:25:41;6.00;99.90
29713;DHT22;16623;53.632;10.016;2024-01-27T05:28:06;5.90;99.90
29713;DHT22;16623;53.632;10.016;2024-01-27T05:30:32;5.80;99.90
29713;DHT22;16623;53.632;10.016;2024-01-27T05:32:58;5.80;99.90
29713;DHT22;16623;53.632;10.016;2024-01-27T05:35:24;5.70;99.90
29713;DHT22;16623;53.632;10.016;2024-01-27T05:37:49;5.70;99.90
29713;DHT22;16623;53.632;10.016;2024-01-27T05:40:16;5.60;99.90
29713;DHT22;16623;53.632;10.016;2024-01-27T05:42:42;5.60;99.90
29713;DHT22;16623;53.632;10.016;2024-01-27T05:45:08;6.20;99.90
29713;DHT22;16623;53.632;10.016;2024-01-27T05:47:35;5.50;99.90
29713;DHT22;16623;53.632;10.016;2024-01-27T05:50:01;5.50;99.90
29713;DHT22;16623;53.632;10.016;2024-01-27T05:52:26;5.50;99.90
29713;DHT22;16623;53.632;10.016;2024-01-27T05:54:52;5.40;99.90
29713;DHT22;16623;53.632;10.016;2024-01-27T05:57:18;5.30;99.90
29713;DHT22;16623;53.632;10.016;2024-01-27T05:59:43;5.30;99.90
29713;DHT22;16623;53.632;10.016;2024-01-27T06:02:09;5.30;99.90
29713;DHT22;16623;53.632;10.016;2024-01-27T06:04:34;5.40;99.90
29713;DHT22;16623;53.632;10.016;2024-01-27T06:07:00;5.30;99.90
29713;DHT22;16623;53.632;10.016;2024-01-27T06:09:26;5.40;99.90
29713;DHT22;16623;53.632;10.016;2024-01-27T06:11:51;5.30;99.90
29713;DHT22;16623;53.632;10.016;2024-01-27T06:16:42;5.40;99.90
29713;DHT22;16623;53.632;10.016;2024-01-27T06:19:08;5.20;99.90
29713;DHT22;16623;53.632;10.016;2024-01-27T06:21:34;5.30;99.90
29713;DHT22;16623;53.632;10.016;2024-01-27T06:24:00;5.30;99.90
29713;DHT22;16623;53.632;10.016;2024-01-27T06:26:26;5.40;99.90
29713;DHT22;16623;53.632;10.016;2024-01-27T06:28:51;5.40;99.90
29713;DHT22;16623;53.632;10.016;2024-01-27T06:31:17;5.30;99.90
29713;DHT22;16623;53.632;10.016;2024-01-27T06:33:42;5.30;99.90
29713;DHT22;16623;53.632;10.016;2024-01-27T06:36:09;5.20;99.90
29713;DHT22;16623;53.632;10.016;2024-01-27T06:38:36;5.20;99.90
29713;DHT22;16623;53.632;10.016;2024-01-27T06:41:03;5.10;99.90
29713;DHT22;16623;53.632;10.016;2024-01-27T06:43:28;5.00;99.90
29713;DHT22;16623;53.632;10.016;2024-01-27T06:45:54;5.00;99.90
29713;DHT22;16623;53.632;10.016;2024-01-27T06:48:22;4.90;99.90
29713;DHT22;16623;53.632;10.016;2024-01-27T06:50:50;4.90;99.90
29713;DHT22;16623;53.632;10.016;2024-01-27T06:53:16;4.90;99.90
29713;DHT22;16623;53.632;10.016;2024-01-27T06:55:41;4.90;99.90
29713;DHT22;16623;53.632;10.016;2024-01-27T06:58:07;4.90;99.90
29713;DHT22;16623;53.632;10.016;2024-01-27T07:00:32;4.80;99.90
29713;DHT22;16623;53.632;10.016;2024-01-27T07:02:58;4.80;99.90
29713;DHT22;16623;53.632;10.016;2024-01-27T07:05:24;4.70;99.90
29713;DHT22;16623;53.632;10.016;2024-01-27T07:10:15;4.60;99.90
29713;DHT22;16623;53.632;10.016;2024-01-27T07:12:41;4.60;99.90
29713;DHT22;16623;53.632;10.016;2024-01-27T07:15:07;4.70;99.90
29713;DHT22;16623;53.632;10.016;2024-01-27T07:17:32;4.60;99.90
29713;DHT22;16623;53.632;10.016;2024-01-27T07:19:58;4.60;99.90
29713;DHT22;16623;53.632;10.016;2024-01-27T07:22:23;4.60;99.90
29713;DHT22;16623;53.632;10.016;2024-01-27T07:24:49;4.50;99.90
29713;DHT22;16623;53.632;10.016;2024-01-27T07:27:17;4.60;99.90
29713;DHT22;16623;53.632;10.016;2024-01-27T07:29:43;4.60;99.90
29713;DHT22;16623;53.632;10.016;2024-01-27T07:32:09;4.50;99.90
29713;DHT22;16623;53.632;10.016;2024-01-27T07:34:44;4.50;99.90
29713;DHT22;16623;53.632;10.016;2024-01-27T07:37:10;4.60;99.90
29713;DHT22;16623;53.632;10.016;2024-01-27T07:39:35;4.60;99.90
29713;DHT22;16623;53.632;10.016;2024-01-27T07:42:01;4.50;99.90
29713;DHT22;16623;53.632;10.016;2024-01-27T07:44:27;4.60;99.90
29713;DHT22;16623;53.632;10.016;2024-01-27T07:46:53;4.60;99.90
29713;DHT22;16623;53.632;10.016;2024-01-27T07:49:18;4.60;99.90
29713;DHT22;16623;53.632;10.016;2024-01-27T07:51:44;4.70;99.90
29713;DHT22;16623;53.632;10.016;2024-01-27T07:56:37;4.80;99.90
29713;DHT22;16623;53.632;10.016;2024-01-27T07:59:03;4.80;99.90
29713;DHT22;16623;53.632;10.016;2024-01-27T08:01:28;4.80;99.90
29713;DHT22;16623;53.632;10.016;2024-01-27T08:03:54;4.80;99.90
29713;DHT22;16623;53.632;10.016;2024-01-27T08:06:28;4.80;99.90
29713;DHT22;16623;53.632;10.016;2024-01-27T08:08:54;4.80;99.90
29713;DHT22;16623;53.632;10.016;2024-01-27T08:11:21;4.80;99.90
29713;DHT22;16623;53.632;10.016;2024-01-27T08:16:13;4.90;99.90
29713;DHT22;16623;53.632;10.016;2024-01-27T08:18:40;4.90;99.90
29713;DHT22;16623;53.632;10.016;2024-01-27T08:21:08;5.00;99.90
29713;DHT22;16623;53.632;10.016;2024-01-27T08:23:33;5.00;99.90
29713;DHT22;16623;53.632;10.016;2024-01-27T08:25:59;4.90;99.90
29713;DHT22;16623;53.632;10.016;2024-01-27T08:28:24;5.00;99.90
29713;DHT22;16623;53.632;10.016;2024-01-27T08:30:50;5.10;99.90
29713;DHT22;16623;53.632;10.016;2024-01-27T08:33:16;6.30;99.90
29713;DHT22;16623;53.632;10.016;2024-01-27T08:35:41;5.10;99.90
29713;DHT22;16623;53.632;10.016;2024-01-27T08:38:07;5.10;99.90
29713;DHT22;16623;53.632;10.016;2024-01-27T08:40:34;5.10;99.90
29713;DHT22;16623;53.632;10.016;2024-01-27T08:43:01;5.10;99.90
29713;DHT22;16623;53.632;10.016;2024-01-27T08:47:53;5.00;99.90
29713;DHT22;16623;53.632;10.016;2024-01-27T08:50:18;5.10;99.90
29713;DHT22;16623;53.632;10.016;2024-01-27T08:52:44;5.10;99.90
29713;DHT22;16623;53.632;10.016;2024-01-27T08:55:11;5.10;99.90
29713;DHT22;16623;53.632;10.016;2024-01-27T08:57:36;5.20;99.90
29713;DHT22;16623;53.632;10.016;2024-01-27T09:00:02;5.20;99.90
29713;DHT22;16623;53.632;10.016;2024-01-27T09:02:28;5.20;99.90
29713;DHT22;16623;53.632;10.016;2024-01-27T09:04:54;5.20;99.90
29713;DHT22;16623;53.632;10.016;2024-01-27T09:07:20;5.30;99.90
29713;DHT22;16623;53.632;10.016;2024-01-27T09:09:46;5.30;99.90
29713;DHT22;16623;53.632;10.016;2024-01-27T09:12:11;5.30;99.90
29713;DHT22;16623;53.632;10.016;2024-01-27T09:14:37;5.40;99.90
29713;DHT22;16623;53.632;10.016;2024-01-27T09:17:02;5.40;99.90
29713;DHT22;16623;53.632;10.016;2024-01-27T09:19:28;5.40;99.90
29713;DHT22;16623;53.632;10.016;2024-01-27T09:21:54;5.40;99.90
29713;DHT22;16623;53.632;10.016;2024-01-27T09:24:19;5.40;99.90
29713;DHT22;16623;53.632;10.016;2024-01-27T09:26:45;5.50;99.90
29713;DHT22;16623;53.632;10.016;2024-01-27T09:29:10;5.50;99.90
29713;DHT22;16623;53.632;10.016;2024-01-27T09:31:36;5.60;99.90
29713;DHT22;16623;53.632;10.016;2024-01-27T09:34:02;5.60;99.90
29713;DHT22;16623;53.632;10.016;2024-01-27T09:36:28;5.60;99.90
29713;DHT22;16623;53.632;10.016;2024-01-27T09:38:53;5.60;99.90
29713;DHT22;16623;53.632;10.016;2024-01-27T09:41:20;5.60;99.90
29713;DHT22;16623;53.632;10.016;2024-01-27T09:43:46;5.70;99.90
29713;DHT22;16623;53.632;10.016;2024-01-27T09:46:16;5.80;99.90
29713;DHT22;16623;53.632;10.016;2024-01-27T09:48:43;5.80;99.90
29713;DHT22;16623;53.632;10.016;2024-01-27T09:51:10;5.90;99.90
29713;DHT22;16623;53.632;10.016;2024-01-27T09:53:36;6.00;99.90
29713;DHT22;16623;53.632;10.016;2024-01-27T09:56:02;6.00;99.90
29713;DHT22;16623;53.632;10.016;2024-01-27T09:58:29;6.10;99.90
29713;DHT22;16623;53.632;10.016;2024-01-27T10:00:56;6.20;99.90
29713;DHT22;16623;53.632;10.016;2024-01-27T10:03:25;6.20;99.90
29713;DHT22;16623;53.632;10.016;2024-01-27T10:05:57;6.30;99.90
29713;DHT22;16623;53.632;10.016;2024-01-27T10:08:23;6.30;99.90
29713;DHT22;16623;53.632;10.016;2024-01-27T10:10:54;6.60;99.90
29713;DHT22;16623;53.632;10.016;2024-01-27T10:13:20;6.30;99.90
29713;DHT22;16623;53.632;10.016;2024-01-27T10:16:11;6.30;99.90
29713;DHT22;16623;53.632;10.016;2024-01-27T10:18:39;6.30;99.90
29713;DHT22;16623;53.632;10.016;2024-01-27T10:21:13;6.40;99.90
29713;DHT22;16623;53.632;10.016;2024-01-27T10:23:39;6.50;99.90
29713;DHT22;16623;53.632;10.016;2024-01-27T10:26:05;6.50;99.90
29713;DHT22;16623;53.632;10.016;2024-01-27T10:28:30;6.60;99.90
29713;DHT22;16623;53.632;10.016;2024-01-27T10:31:08;6.60;99.90
29713;DHT22;16623;53.632;10.016;2024-01-27T10:33:34;6.70;99.90
29713;DHT22;16623;53.632;10.016;2024-01-27T10:36:00;6.70;99.90
29713;DHT22;16623;53.632;10.016;2024-01-27T10:38:36;6.80;99.90
29713;DHT22;16623;53.632;10.016;2024-01-27T10:41:07;6.80;99.90
29713;DHT22;16623;53.632;10.016;2024-01-27T10:43:35;6.80;99.90
29713;DHT22;16623;53.632;10.016;2024-01-27T10:46:06;6.90;99.90
29713;DHT22;16623;53.632;10.016;2024-01-27T10:48:37;7.10;99.90
29713;DHT22;16623;53.632;10.016;2024-01-27T10:51:09;7.20;99.90
29713;DHT22;16623;53.632;10.016;2024-01-27T10:53:36;7.40;99.90
29713;DHT22;16623;53.632;10.016;2024-01-27T10:56:04;7.50;99.90
29713;DHT22;16623;53.632;10.016;2024-01-27T10:58:34;7.40;99.90
29713;DHT22;16623;53.632;10.016;2024-01-27T11:01:08;7.50;99.90
29713;DHT22;16623;53.632;10.016;2024-01-27T11:03:40;7.40;99.90
29713;DHT22;16623;53.632;10.016;2024-01-27T11:06:07;7.40;99.90
29713;DHT22;16623;53.632;10.016;2024-01-27T11:08:36;7.40;99.90
29713;DHT22;16623;53.632;10.016;2024-01-27T11:11:03;7.40;99.90
29713;DHT22;16623;53.632;10.016;2024-01-27T11:13:30;7.40;99.90
29713;DHT22;16623;53.632;10.016;2024-01-27T11:15:57;7.50;99.90
29713;DHT22;16623;53.632;10.016;2024-01-27T11:18:25;7.50;99.90
29713;DHT22;16623;53.632;10.016;2024-01-27T11:20:55;7.50;99.90
29713;DHT22;16623;53.632;10.016;2024-01-27T11:23:31;7.60;99.90
29713;DHT22;16623;53.632;10.016;2024-01-27T11:26:04;7.70;99.90
29713;DHT22;16623;53.632;10.016;2024-01-27T11:28:30;7.70;99.90
29713;DHT22;16623;53.632;10.016;2024-01-27T11:30:55;8.20;99.90
29713;DHT22;16623;53.632;10.016;2024-01-27T11:33:24;7.70;99.90
29713;DHT22;16623;53.632;10.016;2024-01-27T11:36:00;7.70;99.90
29713;DHT22;16623;53.632;10.016;2024-01-27T11:38:26;7.90;99.90
29713;DHT22;16623;53.632;10.016;2024-01-27T11:40:52;7.90;99.90
29713;DHT22;16623;53.632;10.016;2024-01-27T11:43:17;7.90;99.90
29713;DHT22;16623;53.632;10.016;2024-01-27T11:45:57;8.00;99.90
29713;DHT22;16623;53.632;10.016;2024-01-27T11:48:26;7.90;99.90
29713;DHT22;16623;53.632;10.016;2024-01-27T11:51:05;8.00;99.90
29713;DHT22;16623;53.632;10.016;2024-01-27T11:53:34;8.00;99.90
29713;DHT22;16623;53.632;10.016;2024-01-27T11:55:59;8.00;99.90
29713;DHT22;16623;53.632;10.016;2024-01-27T11:58:27;8.00;99.90
29713;DHT22;16623;53.632;10.016;2024-01-27T12:00:53;8.00;99.90
29713;DHT22;16623;53.632;10.016;2024-01-27T12:03:19;8.00;99.90
29713;DHT22;16623;53.632;10.016;2024-01-27T12:05:45;8.00;99.90
29713;DHT22;16623;53.632;10.016;2024-01-27T12:08:11;8.10;99.90
29713;DHT22;16623;53.632;10.016;2024-01-27T12:10:36;8.10;99.90
29713;DHT22;16623;53.632;10.016;2024-01-27T12:13:03;8.10;99.90
29713;DHT22;16623;53.632;10.016;2024-01-27T12:15:29;8.20;99.90
29713;DHT22;16623;53.632;10.016;2024-01-27T12:17:54;8.10;99.90
29713;DHT22;16623;53.632;10.016;2024-01-27T12:20:22;8.10;99.90
29713;DHT22;16623;53.632;10.016;2024-01-27T12:22:48;8.00;99.90
29713;DHT22;16623;53.632;10.016;2024-01-27T12:25:16;8.00;99.90
29713;DHT22;16623;53.632;10.016;2024-01-27T12:27:45;8.10;99.90
29713;DHT22;16623;53.632;10.016;2024-01-27T12:30:12;8.00;99.90
29713;DHT22;16623;53.632;10.016;2024-01-27T12:32:37;8.20;99.90
29713;DHT22;16623;53.632;10.016;2024-01-27T12:35:07;8.20;99.90
29713;DHT22;16623;53.632;10.016;2024-01-27T12:37:36;8.20;99.90
29713;DHT22;16623;53.632;10.016;2024-01-27T12:40:02;8.20;99.90
29713;DHT22;16623;53.632;10.016;2024-01-27T12:42:31;8.20;99.90
29713;DHT22;16623;53.632;10.016;2024-01-27T12:44:59;8.20;99.90
29713;DHT22;16623;53.632;10.016;2024-01-27T12:47:24;8.20;99.90
29713;DHT22;16623;53.632;10.016;2024-01-27T12:49:52;8.30;99.90
29713;DHT22;16623;53.632;10.016;2024-01-27T12:52:17;8.30;99.90
29713;DHT22;16623;53.632;10.016;2024-01-27T12:54:43;8.30;99.90
29713;DHT22;16623;53.632;10.016;2024-01-27T12:57:09;8.30;99.90
29713;DHT22;16623;53.632;10.016;2024-01-27T12:59:38;8.30;99.90
29713;DHT22;16623;53.632;10.016;2024-01-27T13:02:03;8.20;99.90
29713;DHT22;16623;53.632;10.016;2024-01-27T13:04:29;8.20;99.90
29713;DHT22;16623;53.632;10.016;2024-01-27T13:09:24;8.40;99.90
29713;DHT22;16623;53.632;10.016;2024-01-27T13:11:49;8.40;99.90
29713;DHT22;16623;53.632;10.016;2024-01-27T13:16:44;8.40;99.90
29713;DHT22;16623;53.632;10.016;2024-01-27T13:19:09;8.40;99.90
29713;DHT22;16623;53.632;10.016;2024-01-27T13:24:06;8.40;99.90
29713;DHT22;16623;53.632;10.016;2024-01-27T13:26:34;8.50;99.90
29713;DHT22;16623;53.632;10.016;2024-01-27T13:29:12;8.50;99.90
29713;DHT22;16623;53.632;10.016;2024-01-27T13:31:37;8.50;99.90
29713;DHT22;16623;53.632;10.016;2024-01-27T13:34:03;8.50;99.90
29713;DHT22;16623;53.632;10.016;2024-01-27T13:36:29;8.50;99.90
29713;DHT22;16623;53.632;10.016;2024-01-27T13:38:58;8.50;99.90
29713;DHT22;16623;53.632;10.016;2024-01-27T13:43:53;8.40;99.90
29713;DHT22;16623;53.632;10.016;2024-01-27T13:46:18;8.40;99.90
29713;DHT22;16623;53.632;10.016;2024-01-27T13:48:44;8.50;99.90
29713;DHT22;16623;53.632;10.016;2024-01-27T13:51:11;8.90;99.90
29713;DHT22;16623;53.632;10.016;2024-01-27T13:53:46;8.40;99.90
29713;DHT22;16623;53.632;10.016;2024-01-27T13:56:17;8.40;99.90
29713;DHT22;16623;53.632;10.016;2024-01-27T13:58:43;8.30;99.90
29713;DHT22;16623;53.632;10.016;2024-01-27T14:01:09;8.20;99.90
29713;DHT22;16623;53.632;10.016;2024-01-27T14:03:35;8.20;99.90
29713;DHT22;16623;53.632;10.016;2024-01-27T14:06:00;8.10;99.90
29713;DHT22;16623;53.632;10.016;2024-01-27T14:08:26;8.20;99.90
29713;DHT22;16623;53.632;10.016;2024-01-27T14:10:51;8.10;99.90
29713;DHT22;16623;53.632;10.016;2024-01-27T14:13:18;8.10;99.90
29713;DHT22;16623;53.632;10.016;2024-01-27T14:15:44;8.00;99.90
29713;DHT22;16623;53.632;10.016;2024-01-27T14:18:09;8.00;99.90
29713;DHT22;16623;53.632;10.016;2024-01-27T14:20:39;8.00;99.90
29713;DHT22;16623;53.632;10.016;2024-01-27T14:23:04;7.90;99.90
29713;DHT22;16623;53.632;10.016;2024-01-27T14:25:30;8.00;99.90
29713;DHT22;16623;53.632;10.016;2024-01-27T14:27:55;7.90;99.90
29713;DHT22;16623;53.632;10.016;2024-01-27T14:30:21;8.00;99.90
29713;DHT22;16623;53.632;10.016;2024-01-27T14:32:47;8.60;99.90
29713;DHT22;16623;53.632;10.016;2024-01-27T14:35:13;7.90;99.90
29713;DHT22;16623;53.632;10.016;2024-01-27T14:37:38;7.80;99.90
29713;DHT22;16623;53.632;10.016;2024-01-27T14:40:04;7.80;99.90
29713;DHT22;16623;53.632;10.016;2024-01-27T14:42:30;7.80;99.90
29713;DHT22;16623;53.632;10.016;2024-01-27T14:44:55;7.70;99.90
29713;DHT22;16623;53.632;10.016;2024-01-27T14:47:21;7.70;99.90
29713;DHT22;16623;53.632;10.016;2024-01-27T14:49:47;7.70;99.90
29713;DHT22;16623;53.632;10.016;2024-01-27T14:52:13;7.70;99.90
29713;DHT22;16623;53.632;10.016;2024-01-27T14:54:38;7.60;99.90
29713;DHT22;16623;53.632;10.016;2024-01-27T14:57:05;7.60;99.90
29713;DHT22;16623;53.632;10.016;2024-01-27T14:59:33;7.70;99.90
29713;DHT22;16623;53.632;10.016;2024-01-27T15:01:58;7.60;99.90
29713;DHT22;16623;53.632;10.016;2024-01-27T15:04:24;7.60;99.90
29713;DHT22;16623;53.632;10.016;2024-01-27T15:06:54;7.60;99.90
29713;DHT22;16623;53.632;10.016;2024-01-27T15:09:21;7.60;99.90
29713;DHT22;16623;53.632;10.016;2024-01-27T15:11:47;7.60;99.90
29713;DHT22;16623;53.632;10.016;2024-01-27T15:14:13;7.60;99.90
29713;DHT22;16623;53.632;10.016;2024-01-27T15:16:39;7.50;99.90
29713;DHT22;16623;53.632;10.016;2024-01-27T15:19:07;7.50;99.90
29713;DHT22;16623;53.632;10.016;2024-01-27T15:21:36;7.50;99.90
29713;DHT22;16623;53.632;10.016;2024-01-27T15:24:02;7.50;99.90
29713;DHT22;16623;53.632;10.016;2024-01-27T15:26:35;7.40;99.90
29713;DHT22;16623;53.632;10.016;2024-01-27T15:29:02;7.40;99.90
29713;DHT22;16623;53.632;10.016;2024-01-27T15:31:31;7.30;99.90
29713;DHT22;16623;53.632;10.016;2024-01-27T15:33:56;7.20;99.90
29713;DHT22;16623;53.632;10.016;2024-01-27T15:36:22;7.20;99.90
29713;DHT22;16623;53.632;10.016;2024-01-27T15:38:48;7.10;99.90
29713;DHT22;16623;53.632;10.016;2024-01-27T15:41:14;7.10;99.90
29713;DHT22;16623;53.632;10.016;2024-01-27T15:43:41;7.00;99.90
29713;DHT22;16623;53.632;10.016;2024-01-27T15:46:12;7.40;99.90
29713;DHT22;16623;53.632;10.016;2024-01-27T15:48:38;7.00;99.90
29713;DHT22;16623;53.632;10.016;2024-01-27T15:51:04;6.90;99.90
29713;DHT22;16623;53.632;10.016;2024-01-27T15:53:29;6.90;99.90